Details for SAS (Scandinavian Airlines) at ESSA




Go Back


Latest METAR
Local Time

ESSA 250450Z 19005KT CAVOK 13/04 Q1029 NOSIG

25/05/2018, 07:07:25

Description
Results
SAS (Scandinavian Airlines) Logo
Number of Pilots based at ESSA
1 Pilots Based here
Number of SAS (Scandinavian Airlines) Flights Departed from ESSA
13 Flights Departed
Number of SAS (Scandinavian Airlines) Flights Arrived at ESSA
9 Flights Arrived
Number of SAS (Scandinavian Airlines) Schedules Departing from ESSA
460 Schedules
Number of SAS (Scandinavian Airlines) Schedules Arriving at ESSA
457 Schedules
Number of SAS (Scandinavian Airlines) Schedules Departing from ESSA availible today
193 Schedules Today
Number of SAS (Scandinavian Airlines) Schedules Arriving at ESSA availible today
199 Schedules Today
Average Landing Rate at ESSA
-218 fpm
SAS (Scandinavian Airlines) Average Landing Rate at ESSA
-157 fpm
Total Fuel Purchased at ESSA by SAS (Scandinavian Airlines)
46,301.35 kgs / 102,075.96 lbs

Pilots Based at ESSA


Pilot ID
Pilot Name
Pilot Rank
No. of Flights
No. of Flying Hours
David Kurth
6
10.16
Content